Millsap, Texas
Current Conditions -  °F | °C
As of 1:53 AM on Saturday 25 Oct 2014 (Local Time) from KMWL Reporting Station
Clear Clear  
Wind Chill: 64°   Ceiling: Unl
Heat Index: 64°   Visibility: 7mi
Dew Point: 59°   Wind: 8mph
Humidity: 84%   Direction: 140°SE
Pressure: 30.09"   Gusts: NA
Location:  32.75°N, 98.01°W
Report Text: KMWL 250653Z AUTO 14007KT 7SM CLR 18/15 A3009 RMK AO2 SLP177 T01780150
Loading
Personal Weather Stations






























Interactive Weather Map
Tropical Storm Tracking
New forecast layout! Learn more

10-Day Weather Forecast

Advertisements
Track Severe Weather on mobile